createdAt,value
2017-05-24T18:10:45.898Z,101500.26
2017-05-24T18:13:15.990Z,101496.80
2017-05-24T18:15:44.838Z,101494.87
2017-05-24T18:18:13.485Z,101499.38
2017-05-24T18:20:40.788Z,101493.52
2017-05-24T18:23:07.262Z,101495.06
2017-05-24T18:25:33.829Z,101496.22
2017-05-24T18:28:00.225Z,101503.02
2017-05-24T18:30:27.585Z,101502.23
2017-05-24T18:32:54.003Z,101500.94
2017-05-24T18:35:20.405Z,101502.62
2017-05-24T18:37:46.810Z,101507.20
2017-05-24T18:40:13.198Z,101515.56
2017-05-24T18:42:39.519Z,101504.86
2017-05-24T18:45:05.862Z,101519.03
2017-05-24T18:47:32.250Z,101511.28
2017-05-24T18:49:58.645Z,101507.31
2017-05-24T18:52:25.076Z,101517.22
2017-05-24T18:54:51.470Z,101515.36
2017-05-24T18:57:17.829Z,101518.61
2017-05-24T18:59:44.194Z,101519.09
2017-05-24T19:02:10.645Z,101518.05
2017-05-24T19:04:37.019Z,101516.83
2017-05-24T19:07:03.364Z,101523.19
2017-05-24T19:09:29.702Z,101524.28
2017-05-24T19:11:56.027Z,101528.30
2017-05-24T19:14:22.442Z,101534.19
2017-05-24T19:16:48.755Z,101530.77
2017-05-24T19:19:15.129Z,101534.30
2017-05-24T19:21:41.562Z,101534.75
2017-05-24T19:24:07.937Z,101546.70
2017-05-24T19:26:34.346Z,101539.76
2017-05-24T19:29:00.704Z,101547.56
2017-05-24T19:31:27.062Z,101548.57
2017-05-24T19:33:53.644Z,101553.06
2017-05-24T19:36:20.039Z,101561.61
2017-05-24T19:38:46.381Z,101559.55
2017-05-24T19:41:12.744Z,101563.52
2017-05-24T19:43:39.092Z,101572.35
2017-05-24T19:46:05.510Z,101572.62
2017-05-24T19:48:31.871Z,101571.52
2017-05-24T19:50:58.213Z,101574.80
2017-05-24T19:53:24.664Z,101575.27
2017-05-24T19:55:51.181Z,101581.16
2017-05-24T19:58:17.655Z,101578.38
2017-05-24T20:00:45.609Z,101583.91
2017-05-24T20:03:11.948Z,101573.92
2017-05-24T20:05:38.364Z,101572.35
2017-05-24T20:08:05.080Z,101574.80
2017-05-24T20:10:32.608Z,101579.92
2017-05-24T20:12:59.446Z,101576.61
2017-05-24T20:15:25.905Z,101582.50
2017-05-24T20:17:52.798Z,101586.17
2017-05-24T20:20:19.211Z,101593.19
2017-05-24T20:22:45.814Z,101593.84
2017-05-24T20:25:12.192Z,101592.82
2017-05-24T20:27:38.601Z,101597.83
2017-05-24T20:30:05.055Z,101594.32
2017-05-24T20:32:31.509Z,101601.58
2017-05-24T20:34:57.861Z,101608.62
2017-05-24T20:37:24.226Z,101606.75
2017-05-24T20:39:50.928Z,101605.33
2017-05-24T20:42:17.357Z,101608.53
2017-05-24T20:44:44.091Z,101601.89
2017-05-24T20:47:10.481Z,101601.45
2017-05-24T20:49:36.863Z,101602.22
2017-05-24T20:52:03.259Z,101602.87
2017-05-24T20:54:29.760Z,101602.00
2017-05-24T20:57:00.550Z,101608.09
2017-05-24T20:59:27.129Z,101603.66
2017-05-24T21:01:53.694Z,101606.34
2017-05-24T21:04:20.079Z,101609.47
2017-05-24T21:06:47.246Z,101609.36
2017-05-24T21:09:16.968Z,101604.16
2017-05-24T21:11:44.159Z,101607.21
2017-05-24T21:14:10.619Z,101609.52
2017-05-24T21:16:36.996Z,101605.00
2017-05-24T21:19:05.660Z,101616.80
2017-05-24T21:21:32.026Z,101617.77
2017-05-24T21:23:59.559Z,101616.37
2017-05-24T21:26:26.117Z,101609.27
2017-05-24T21:28:52.524Z,101610.42
2017-05-24T21:31:22.090Z,101606.64
2017-05-24T21:33:51.482Z,101608.12
2017-05-24T21:36:18.107Z,101610.41
2017-05-24T21:38:44.430Z,101610.23
2017-05-24T21:41:10.796Z,101613.48
2017-05-24T21:43:38.959Z,101609.47
2017-05-24T21:46:06.326Z,101612.58
2017-05-24T21:48:32.702Z,101615.50
2017-05-24T21:51:00.428Z,101617.34
2017-05-24T21:53:26.829Z,101615.20
2017-05-24T21:55:53.214Z,101625.47
2017-05-24T21:58:19.580Z,101628.23
2017-05-24T22:00:45.921Z,101628.66
2017-05-24T22:03:12.250Z,101623.81
2017-05-24T22:05:39.432Z,101628.50
2017-05-24T22:08:05.946Z,101629.51
2017-05-24T22:10:32.310Z,101634.06
2017-05-24T22:13:00.037Z,101630.45
2017-05-24T22:15:26.420Z,101625.95
2017-05-24T22:17:53.762Z,101626.28
2017-05-24T22:20:20.638Z,101630.85
2017-05-24T22:22:46.999Z,101625.77
2017-05-24T22:25:13.362Z,101630.91
2017-05-24T22:27:41.462Z,101632.56
2017-05-24T22:30:07.928Z,101632.50
2017-05-24T22:32:34.276Z,101637.91
2017-05-24T22:35:00.627Z,101639.91
2017-05-24T22:37:26.992Z,101634.34
2017-05-24T22:39:53.352Z,101638.21
2017-05-24T22:42:19.715Z,101639.48
2017-05-24T22:44:46.057Z,101640.48
2017-05-24T22:47:12.398Z,101647.62
2017-05-24T22:49:38.766Z,101643.05
2017-05-24T22:52:05.122Z,101650.92
2017-05-24T22:54:31.453Z,101650.57
2017-05-24T22:56:57.787Z,101650.20
2017-05-24T22:59:24.160Z,101649.61
2017-05-24T23:01:50.497Z,101645.52
2017-05-24T23:04:16.840Z,101651.28
2017-05-24T23:06:43.258Z,101647.90
2017-05-24T23:09:09.601Z,101652.22
2017-05-24T23:11:35.969Z,101649.12
2017-05-24T23:14:02.302Z,101649.82
2017-05-24T23:16:28.656Z,101650.81
2017-05-24T23:18:54.965Z,101642.02
2017-05-24T23:21:21.300Z,101647.94
2017-05-24T23:23:47.639Z,101652.88
2017-05-24T23:26:13.995Z,101653.59
2017-05-24T23:28:40.350Z,101653.87
2017-05-24T23:31:06.667Z,101651.31
2017-05-24T23:33:33.024Z,101661.81
2017-05-24T23:35:59.401Z,101661.08
2017-05-24T23:38:25.758Z,101662.09
2017-05-24T23:40:52.106Z,101654.84
2017-05-24T23:43:18.435Z,101654.05
2017-05-24T23:45:44.767Z,101661.59
2017-05-24T23:48:11.110Z,101657.13
2017-05-24T23:50:37.446Z,101654.58
2017-05-24T23:53:03.868Z,101658.48
2017-05-24T23:55:30.236Z,101650.81
2017-05-24T23:57:56.581Z,101655.30
